Time;durP1;ratioP1;P1;durP2;ratioP2;P2;SDS_P1;SDS_P2;PMS_P1;PMS_P2;Temp;Humidity;BMP_temperature;BMP_pressure;BME280_temperature;BME280_humidity;BME280_pressure;Samples;Min_cycle;Max_cycle;Signal;HPM_P1;HPM_P2
2023/09/02 00:03:49;;;;;;;1.73;1.63;;;;;;;23.16;45.21;99828.19;10367601;28;20238;-38
2023/09/02 00:08:51;;;;;;;2.17;1.77;;;;;;;23.13;45.19;99828.72;10374523;28;20310;-38
2023/09/02 00:13:53;;;;;;;2.35;1.80;;;;;;;22.57;46.03;99856.53;10371231;28;20615;-39
2023/09/02 00:18:55;;;;;;;3.78;2.00;;;;;;;22.23;47.32;99870.44;10378300;28;20234;-38
2023/09/02 00:24:05;;;;;;;2.03;1.85;;;;;;;22.43;47.12;99820.69;10373593;28;20319;-38
2023/09/02 00:29:07;;;;;;;4.07;2.00;;;;;;;22.35;46.70;99848.44;10379585;28;20229;-38
2023/09/02 00:34:09;;;;;;;2.45;1.77;;;;;;;22.20;47.00;99842.88;10374891;28;20252;-38
2023/09/02 00:39:10;;;;;;;1.95;1.80;;;;;;;22.14;47.39;99842.03;10374028;28;20255;-40
2023/09/02 00:44:12;;;;;;;1.92;1.70;;;;;;;22.02;47.76;99842.19;10375245;28;20614;-38
2023/09/02 00:49:14;;;;;;;3.13;1.60;;;;;;;22.26;47.41;99837.19;10375564;28;20232;-39
2023/09/02 00:54:16;;;;;;;1.65;1.40;;;;;;;18.56;53.47;99901.22;10374933;28;20627;-39
2023/09/02 00:59:18;;;;;;;2.10;1.90;;;;;;;17.04;57.66;99836.31;10376752;28;20319;-39
2023/09/02 01:04:21;;;;;;;4.57;2.42;;;;;;;17.39;57.82;99750.97;10376330;28;31110;-39
2023/09/02 01:09:23;;;;;;;2.00;1.80;;;;;;;17.49;56.82;99745.81;10376156;28;20244;-39
2023/09/02 01:14:25;;;;;;;2.30;1.90;;;;;;;20.53;49.73;99815.13;10374411;28;20702;-40
2023/09/02 01:19:28;;;;;;;3.13;2.03;;;;;;;19.68;51.79;99807.00;10372088;28;20232;-38
2023/09/02 01:24:48;;;;;;;2.70;1.90;;;;;;;19.17;52.16;99863.81;10373096;28;20241;-38
2023/09/02 01:30:08;;;;;;;2.77;2.00;;;;;;;19.11;52.26;99822.19;10366047;28;20711;-39
2023/09/02 01:35:16;;;;;;;1.87;1.63;;;;;;;21.12;48.69;99795.53;10370897;28;20232;-39
2023/09/02 01:40:25;;;;;;;2.60;1.80;;;;;;;21.75;46.66;99875.72;10371930;28;20229;-38
2023/09/02 01:45:34;;;;;;;1.70;1.60;;;;;;;21.52;47.24;99887.72;10375913;28;20980;-39
2023/09/02 01:50:39;;;;;;;4.13;1.70;;;;;;;19.56;50.85;99937.34;10369307;28;20244;-39
2023/09/02 01:55:41;;;;;;;2.17;1.98;;;;;;;20.45;49.35;99930.56;10371265;28;20234;-39
2023/09/02 02:00:43;;;;;;;4.85;2.10;;;;;;;18.85;52.51;99929.25;10366242;28;20228;-39
2023/09/02 02:05:52;;;;;;;2.33;2.13;;;;;;;19.81;51.03;99849.31;10372786;28;20240;-38
2023/09/02 02:10:58;;;;;;;3.47;1.75;;;;;;;21.36;48.41;99815.16;10371844;28;20351;-38
2023/09/02 02:15:59;;;;;;;3.13;1.70;;;;;;;21.49;46.87;99912.75;10374371;28;20224;-40
2023/09/02 02:21:03;;;;;;;3.60;2.15;;;;;;;20.37;49.54;99898.34;10368870;28;20236;-40
2023/09/02 02:26:06;;;;;;;3.93;2.07;;;;;;;19.97;50.15;99945.44;10372654;28;20229;-38
2023/09/02 02:31:07;;;;;;;2.47;1.70;;;;;;;18.49;51.78;99982.63;10369850;28;20622;-38
2023/09/02 02:36:09;;;;;;;2.77;2.03;;;;;;;17.67;56.02;99924.38;10368592;28;20286;-39
2023/09/02 02:41:12;;;;;;;2.60;2.20;;;;;;;18.00;55.52;99881.66;10374223;28;20965;-39
2023/09/02 02:46:14;;;;;;;1.97;1.87;;;;;;;18.00;54.92;99866.25;10368413;28;20344;-40
2023/09/02 02:51:15;;;;;;;1.93;1.70;;;;;;;17.70;55.77;99888.75;10372103;28;20228;-39
2023/09/02 02:56:17;;;;;;;3.87;2.20;;;;;;;17.70;56.32;99877.09;10371965;28;20375;-40
2023/09/02 03:01:19;;;;;;;3.10;2.07;;;;;;;17.49;56.77;99903.53;10371437;28;20218;-41
2023/09/02 03:06:21;;;;;;;2.23;2.03;;;;;;;16.93;57.78;99918.94;10370889;28;20336;-39
2023/09/02 03:11:23;;;;;;;3.50;2.13;;;;;;;16.85;58.13;99915.69;10363954;28;20844;-39
2023/09/02 03:16:25;;;;;;;2.43;2.00;;;;;;;16.92;57.95;99889.41;10374225;28;20221;-38
2023/09/02 03:21:27;;;;;;;2.07;1.90;;;;;;;17.02;57.68;99870.81;10369691;28;20213;-38
2023/09/02 03:26:29;;;;;;;2.30;2.10;;;;;;;17.30;57.20;99891.09;10367437;28;20249;-39
2023/09/02 03:31:30;;;;;;;2.40;2.03;;;;;;;17.13;57.34;99904.41;10367658;28;20699;-38
2023/09/02 03:36:32;;;;;;;3.93;2.17;;;;;;;17.12;57.15;99889.22;10365819;28;20241;-40
2023/09/02 03:41:37;;;;;;;2.80;2.47;;;;;;;17.80;55.47;99906.28;10365938;28;20245;-38
2023/09/02 03:46:39;;;;;;;2.30;2.10;;;;;;;17.69;56.04;99897.09;10373203;28;20233;-39
2023/09/02 03:51:42;;;;;;;3.67;2.00;;;;;;;17.70;56.13;99926.63;10373562;28;20225;-41
2023/09/02 03:56:44;;;;;;;1.90;1.77;;;;;;;18.09;55.76;99881.09;10378967;28;20233;-39
2023/09/02 04:01:46;;;;;;;2.40;2.00;;;;;;;20.37;50.49;99874.72;10375907;28;20236;-40
2023/09/02 04:06:47;;;;;;;4.10;2.30;;;;;;;17.50;56.35;100032.34;10376584;28;20717;-40
2023/09/02 04:11:49;;;;;;;2.23;1.90;;;;;;;18.36;55.16;99915.09;10377142;28;20232;-38
2023/09/02 04:16:55;;;;;;;2.80;1.70;;;;;;;17.95;56.10;99909.44;10372136;28;20247;-39
2023/09/02 04:21:57;;;;;;;2.53;1.80;;;;;;;20.74;49.60;99931.25;10376222;28;20928;-39
2023/09/02 04:27:00;;;;;;;1.93;1.83;;;;;;;20.45;49.40;99996.59;10369680;28;20239;-38
2023/09/02 04:32:02;;;;;;;3.50;1.93;;;;;;;20.02;50.71;99995.22;10373436;28;20253;-40
2023/09/02 04:37:04;;;;;;;2.33;1.70;;;;;;;21.48;47.34;99946.47;10373602;28;20980;-38
2023/09/02 04:42:06;;;;;;;4.20;1.80;;;;;;;21.58;47.00;99992.88;10377993;28;20301;-39
2023/09/02 04:47:10;;;;;;;5.97;1.80;;;;;;;20.37;49.61;100045.91;10375916;28;20248;-38
2023/09/02 04:52:12;;;;;;;1.97;1.87;;;;;;;20.53;48.51;100041.59;10360084;28;20229;-40
2023/09/02 04:57:13;;;;;;;2.60;1.80;;;;;;;20.21;49.08;100031.22;10354837;28;20253;-38
2023/09/02 05:02:16;;;;;;;3.43;1.87;;;;;;;21.12;47.08;99989.53;10373038;28;20213;-39
2023/09/02 05:07:18;;;;;;;5.53;2.07;;;;;;;21.02;47.61;100002.94;10372918;28;20233;-38
2023/09/02 05:12:20;;;;;;;2.30;2.10;;;;;;;19.57;50.97;100018.50;10374161;28;20738;-39
2023/09/02 05:17:22;;;;;;;2.30;2.10;;;;;;;21.32;47.84;99944.59;10400391;22;20232;-35
2023/09/02 05:22:24;;;;;;;2.77;1.87;;;;;;;20.88;48.79;99971.75;10415614;28;20250;-34
2023/09/02 05:27:26;;;;;;;2.00;1.80;;;;;;;18.16;54.28;100058.91;10422699;28;20232;-34
2023/09/02 05:32:28;;;;;;;2.50;2.30;;;;;;;20.58;49.54;99937.53;10430202;28;20235;-35
2023/09/02 05:37:29;;;;;;;2.95;2.38;;;;;;;20.93;49.23;99980.78;10429332;28;20251;-34
2023/09/02 05:42:31;;;;;;;2.87;2.40;;;;;;;18.90;52.76;100043.25;10427994;28;20701;-34
2023/09/02 05:47:33;;;;;;;2.40;2.13;;;;;;;17.80;55.95;100038.91;10426047;28;20232;-34
2023/09/02 05:52:34;;;;;;;4.83;2.33;;;;;;;18.44;54.84;99991.44;10428746;28;20251;-35
2023/09/02 05:57:36;;;;;;;6.30;2.47;;;;;;;17.77;55.58;100032.09;10421192;28;20297;-35
2023/09/02 06:02:38;;;;;;;7.43;2.87;;;;;;;17.42;56.82;100018.31;10426005;28;20221;-34
2023/09/02 06:07:40;;;;;;;3.77;2.53;;;;;;;17.09;57.33;100039.22;10405865;28;20247;-35
2023/09/02 06:12:42;;;;;;;4.43;2.87;;;;;;;17.27;57.48;100014.06;10427083;28;20228;-34
2023/09/02 06:17:43;;;;;;;6.50;3.63;;;;;;;17.05;58.73;100010.94;10429706;28;20652;-35
2023/09/02 06:22:45;;;;;;;6.63;3.90;;;;;;;17.63;58.17;99939.44;10430218;28;20786;-35
2023/09/02 06:27:47;;;;;;;5.97;4.10;;;;;;;17.85;57.55;99993.88;10424022;28;20918;-34
2023/09/02 06:32:49;;;;;;;4.67;3.83;;;;;;;17.86;57.84;99992.00;10425969;28;20273;-34
2023/09/02 06:37:50;;;;;;;4.93;3.30;;;;;;;18.68;56.03;99948.09;10420201;28;20228;-34
2023/09/02 06:42:52;;;;;;;4.27;3.30;;;;;;;18.86;55.72;100036.66;10424247;28;20223;-35
2023/09/02 06:47:54;;;;;;;3.70;3.40;;;;;;;18.64;56.91;100011.94;10422262;28;20346;-35
2023/09/02 06:52:56;;;;;;;4.63;3.50;;;;;;;18.75;56.72;100023.88;10420081;28;20212;-35
2023/09/02 06:57:58;;;;;;;3.57;3.27;;;;;;;18.86;56.11;100084.59;10423834;28;21066;-35
2023/09/02 07:02:59;;;;;;;4.13;3.50;;;;;;;19.94;53.80;100153.97;10424468;28;20242;-35
2023/09/02 07:08:02;;;;;;;4.83;3.37;;;;;;;19.61;55.03;100103.00;10421784;28;20235;-35
2023/09/02 07:13:03;;;;;;;7.73;3.13;;;;;;;22.03;50.28;100061.81;10426738;28;20220;-35
2023/09/02 07:18:05;;;;;;;3.73;2.90;;;;;;;22.86;48.57;100026.09;10422702;28;20232;-35
2023/09/02 07:23:07;;;;;;;3.53;3.13;;;;;;;21.63;49.81;100113.81;10431913;28;20208;-35
2023/09/02 07:28:09;;;;;;;4.43;3.08;;;;;;;21.56;50.26;100122.16;10432798;28;20330;-35
2023/09/02 07:33:10;;;;;;;4.35;2.75;;;;;;;21.77;50.54;100132.25;10435611;28;20204;-35
2023/09/02 07:38:12;;;;;;;4.53;2.75;;;;;;;21.85;50.92;100111.97;10428209;28;20235;-35
2023/09/02 07:43:14;;;;;;;4.25;2.75;;;;;;;23.09;47.60;100095.06;10431574;28;20728;-34
2023/09/02 07:48:16;;;;;;;4.70;2.58;;;;;;;22.61;49.07;100103.06;10432208;28;20290;-35
2023/09/02 07:53:18;;;;;;;5.32;2.63;;;;;;;22.28;49.33;100114.94;10430726;28;20235;-35
2023/09/02 07:58:20;;;;;;;4.72;2.40;;;;;;;21.90;50.05;100150.16;10426673;28;20605;-35
2023/09/02 08:03:22;;;;;;;5.90;2.72;;;;;;;21.66;51.11;100144.09;10424917;28;20318;-35
2023/09/02 08:08:24;;;;;;;3.80;2.38;;;;;;;21.29;51.22;100160.94;10431208;28;20331;-35
2023/09/02 08:13:26;;;;;;;5.78;2.00;;;;;;;20.96;51.98;100156.28;10428244;28;20230;-35
2023/09/02 08:18:27;;;;;;;3.25;2.30;;;;;;;22.69;49.16;100055.44;10430282;28;20247;-35
2023/09/02 08:23:29;;;;;;;4.47;2.20;;;;;;;22.66;48.20;100135.84;10427110;28;20232;-34
2023/09/02 08:28:31;;;;;;;2.50;2.30;;;;;;;23.35;47.47;100093.34;10431563;28;20224;-35
2023/09/02 08:33:35;;;;;;;3.80;2.60;;;;;;;22.73;49.27;100113.00;10432484;28;20309;-35
2023/09/02 08:38:37;;;;;;;2.15;2.00;;;;;;;24.25;46.75;100036.97;10425183;28;20236;-35
2023/09/02 08:43:40;;;;;;;2.40;2.20;;;;;;;22.50;49.11;100106.72;10429965;28;20217;-36
2023/09/02 08:48:43;;;;;;;4.88;2.78;;;;;;;22.90;49.13;100103.59;10433984;28;20267;-35
2023/09/02 08:53:46;;;;;;;3.90;1.90;;;;;;;23.76;47.03;100071.75;10427981;28;20281;-35
2023/09/02 08:58:49;;;;;;;2.10;2.00;;;;;;;23.07;48.54;100146.34;10424394;28;20232;-35
2023/09/02 09:03:55;;;;;;;3.22;2.00;;;;;;;22.24;49.88;100149.25;10432966;28;20228;-35
2023/09/02 09:08:57;;;;;;;2.10;1.90;;;;;;;22.99;48.67;100105.84;10430313;28;20759;-35
2023/09/02 09:14:01;;;;;;;3.00;1.95;;;;;;;24.50;46.87;100050.66;10422717;28;20234;-35
2023/09/02 09:19:03;;;;;;;2.25;2.00;;;;;;;24.15;46.37;100084.22;10425157;28;20240;-35
2023/09/02 09:24:10;;;;;;;4.68;2.15;;;;;;;23.73;46.88;100112.44;10413340;28;20827;-35
2023/09/02 09:29:21;;;;;;;3.15;1.90;;;;;;;24.11;46.89;100075.72;10428895;28;20223;-36
2023/09/02 09:34:35;;;;;;;2.83;2.00;;;;;;;24.03;46.70;100089.88;10430885;28;20322;-35
2023/09/02 09:39:40;;;;;;;2.75;1.90;;;;;;;24.31;46.29;100053.09;10427587;28;20266;-35
2023/09/02 09:44:55;;;;;;;2.10;1.90;;;;;;;24.55;46.18;100047.13;10424143;28;20251;-35
2023/09/02 09:50:12;;;;;;;2.53;1.73;;;;;;;24.74;45.14;100096.66;10426749;28;25031;-35
2023/09/02 09:55:24;;;;;;;2.33;1.67;;;;;;;25.21;44.58;100064.66;10429945;28;20224;-35
2023/09/02 10:00:29;;;;;;;3.45;1.80;;;;;;;24.24;45.82;100109.97;10426610;28;20242;-35
2023/09/02 10:05:32;;;;;;;1.75;1.65;;;;;;;25.04;45.41;100051.25;10428234;28;20807;-35
2023/09/02 10:10:36;;;;;;;4.70;2.10;;;;;;;25.81;44.35;100026.41;10424575;28;20270;-35
2023/09/02 10:15:39;;;;;;;1.70;1.60;;;;;;;25.25;44.97;100080.28;10423279;28;20320;-35
2023/09/02 10:20:42;;;;;;;2.65;2.08;;;;;;;26.32;43.28;100037.13;10423076;28;20239;-35
2023/09/02 10:26:00;;;;;;;3.20;2.15;;;;;;;26.80;43.30;100019.22;10427303;28;20703;-35
2023/09/02 10:31:06;;;;;;;2.35;1.73;;;;;;;25.29;44.54;100084.09;10421636;28;20942;-35
2023/09/02 10:36:08;;;;;;;2.53;2.13;;;;;;;26.08;44.40;99995.84;10425093;28;20231;-35
2023/09/02 10:41:15;;;;;;;2.45;1.98;;;;;;;25.60;45.01;100014.69;10409418;28;20244;-35
2023/09/02 10:46:17;;;;;;;2.45;2.15;;;;;;;26.32;43.80;100011.63;10411491;28;20240;-34
2023/09/02 10:51:20;;;;;;;2.97;2.17;;;;;;;24.01;46.06;100075.69;10423594;28;20239;-35
2023/09/02 10:56:33;;;;;;;2.22;2.00;;;;;;;24.79;45.43;100021.97;10420423;28;20212;-35
2023/09/02 11:06:19;;;;;;;2.55;2.00;;;;;;;23.28;48.38;100012.75;10528206;27;21237;-72
2023/09/02 11:11:21;;;;;;;2.50;2.20;;;;;;;22.95;48.63;100007.34;10434359;28;20261;-70
2023/09/02 11:16:22;;;;;;;2.40;1.98;;;;;;;24.59;47.61;99968.06;10443275;28;20741;-71
2023/09/02 11:21:42;;;;;;;3.20;1.70;;;;;;;24.03;48.97;99977.84;10428808;28;20875;-70
2023/09/02 11:26:58;;;;;;;3.40;1.65;;;;;;;23.94;48.72;99988.47;10431231;28;20220;-70
2023/09/02 11:32:03;;;;;;;3.15;2.15;;;;;;;24.61;47.52;99974.06;10435064;28;20230;-71
2023/09/02 11:37:05;;;;;;;2.88;1.80;;;;;;;24.57;48.04;99984.75;10480933;28;20272;-70
2023/09/02 11:42:09;;;;;;;4.10;1.58;;;;;;;23.90;47.85;100049.41;10487569;28;20363;-71
2023/09/02 11:47:14;;;;;;;2.05;1.65;;;;;;;24.82;47.08;100002.28;10486571;28;20648;-70
2023/09/02 11:52:21;;;;;;;1.83;1.70;;;;;;;24.32;47.91;100056.66;10484786;28;20234;-71
2023/09/02 11:57:22;;;;;;;2.63;2.03;;;;;;;24.22;47.73;100035.56;10480025;28;20265;-70
2023/09/02 12:02:25;;;;;;;1.85;1.45;;;;;;;25.15;46.75;99992.63;10480370;28;20325;-70
2023/09/02 12:07:27;;;;;;;5.18;2.00;;;;;;;25.09;46.28;100040.28;10473756;28;20314;-71
2023/09/02 12:12:30;;;;;;;1.88;1.70;;;;;;;25.32;46.40;100025.22;10434473;28;20737;-71
2023/09/02 12:17:32;;;;;;;2.00;1.80;;;;;;;25.58;44.99;100011.44;10415394;28;20263;-70
2023/09/02 12:22:36;;;;;;;5.45;2.00;;;;;;;26.16;44.35;100014.41;10427882;28;20615;-71
2023/09/02 12:27:38;;;;;;;1.80;1.60;;;;;;;25.19;45.15;100084.06;10440558;28;21033;-70
2023/09/02 12:32:45;;;;;;;2.35;1.90;;;;;;;25.16;45.09;100037.25;10411188;28;20223;-70
2023/09/02 12:38:02;;;;;;;2.05;1.70;;;;;;;25.72;44.38;100042.63;10412164;28;20239;-70
2023/09/02 12:43:04;;;;;;;2.40;1.75;;;;;;;25.64;44.56;100059.59;10410128;28;20228;-70
2023/09/02 12:48:07;;;;;;;1.63;1.45;;;;;;;25.78;42.50;100068.91;10408250;28;22888;-70
2023/09/02 12:53:12;;;;;;;2.83;1.58;;;;;;;26.21;42.28;100041.84;10408230;28;20235;-70
2023/09/02 12:58:14;;;;;;;2.88;2.00;;;;;;;26.29;42.61;100031.38;10405846;28;20905;-70
2023/09/02 13:03:15;;;;;;;1.65;1.55;;;;;;;25.59;42.27;100063.19;10411464;28;20243;-70
2023/09/02 13:08:17;;;;;;;2.28;1.27;;;;;;;26.40;39.59;100052.13;10417497;28;20338;-71
2023/09/02 13:13:19;;;;;;;2.28;1.70;;;;;;;25.44;40.56;100080.50;10411775;28;20311;-70
2023/09/02 13:18:25;;;;;;;1.58;1.38;;;;;;;26.36;38.62;100018.97;10428241;28;20261;-71
2023/09/02 13:23:30;;;;;;;3.70;1.55;;;;;;;25.19;41.01;100080.53;10454938;28;20238;-70
2023/09/02 13:28:36;;;;;;;2.38;1.50;;;;;;;26.38;39.90;100026.91;10450497;28;20385;-69
2023/09/02 13:33:42;;;;;;;6.35;1.85;;;;;;;26.72;40.87;100039.81;10452131;28;20231;-71
2023/09/02 13:38:44;;;;;;;2.30;1.27;;;;;;;26.94;40.16;100025.66;10456396;28;20242;-71
2023/09/02 13:43:47;;;;;;;3.15;1.60;;;;;;;26.66;39.84;100044.53;10450565;28;20330;-70
2023/09/02 13:48:48;;;;;;;1.40;1.20;;;;;;;26.83;39.47;100041.41;10447380;28;20238;-69
2023/09/02 13:53:50;;;;;;;1.92;1.60;;;;;;;27.10;39.48;100051.84;10449381;28;20223;-71
2023/09/02 13:58:52;;;;;;;2.65;1.60;;;;;;;26.85;39.17;100033.69;10447121;28;20274;-70
2023/09/02 14:03:53;;;;;;;2.15;1.65;;;;;;;27.26;39.14;100019.59;10425951;28;20236;-70
2023/09/02 14:08:59;;;;;;;3.40;1.70;;;;;;;27.46;39.12;100031.44;10404449;28;20236;-71
2023/09/02 14:14:01;;;;;;;2.25;1.63;;;;;;;27.03;38.27;100014.88;10428403;28;20237;-70
2023/09/02 14:19:03;;;;;;;2.58;1.73;;;;;;;27.36;38.25;100040.63;10447140;28;20612;-70
2023/09/02 14:24:05;;;;;;;6.18;1.67;;;;;;;27.35;38.53;100047.25;10422904;28;20235;-71
2023/09/02 14:29:06;;;;;;;1.92;1.60;;;;;;;27.72;38.23;100021.00;10431020;28;20246;-70
2023/09/02 14:34:08;;;;;;;4.15;1.80;;;;;;;27.93;37.96;100053.72;10448829;28;20624;-70
2023/09/02 14:39:13;;;;;;;3.35;1.50;;;;;;;27.69;38.72;100049.84;10441916;28;20762;-71
2023/09/02 14:44:16;;;;;;;2.95;1.40;;;;;;;27.99;38.22;100045.09;10446516;28;20296;-71
2023/09/02 14:49:18;;;;;;;1.83;1.52;;;;;;;27.86;38.72;100051.34;10445499;28;22333;-72
2023/09/02 14:54:20;;;;;;;2.17;1.50;;;;;;;28.48;39.92;100000.94;10443068;28;20256;-70
2023/09/02 14:59:24;;;;;;;3.47;1.83;;;;;;;28.04;40.69;100016.72;10417314;28;20728;-71
2023/09/02 15:04:26;;;;;;;2.05;1.80;;;;;;;28.10;39.58;100031.22;10403638;28;20798;-71
2023/09/02 15:09:30;;;;;;;1.98;1.60;;;;;;;28.09;40.40;100011.16;10406212;28;20324;-70
2023/09/02 15:14:34;;;;;;;1.70;1.50;;;;;;;28.08;39.66;100030.69;10407440;28;20228;-69
2023/09/02 15:19:38;;;;;;;3.35;2.08;;;;;;;27.23;41.16;100017.44;10410560;28;20266;-69
2023/09/02 15:24:40;;;;;;;2.05;1.77;;;;;;;27.98;40.19;100026.97;10435722;28;20227;-70
2023/09/02 15:29:47;;;;;;;2.97;1.70;;;;;;;27.92;40.01;100043.81;10442428;28;20231;-71
2023/09/02 15:34:49;;;;;;;2.00;1.77;;;;;;;27.71;41.44;100037.78;10442109;28;20235;-69
2023/09/02 15:39:54;;;;;;;2.38;1.42;;;;;;;28.07;41.17;100043.63;10414993;28;20224;-70
2023/09/02 15:44:55;;;;;;;2.17;1.75;;;;;;;28.22;40.74;100039.84;10435727;28;21028;-70
2023/09/02 15:49:57;;;;;;;1.90;1.60;;;;;;;28.52;40.70;100035.00;10447183;28;20250;-69
2023/09/02 15:54:59;;;;;;;2.72;1.60;;;;;;;27.90;40.32;100054.31;10454347;28;20358;-70
2023/09/02 16:00:00;;;;;;;2.30;2.10;;;;;;;27.87;41.19;100063.97;10451258;28;20698;-70
2023/09/02 16:05:02;;;;;;;2.88;1.60;;;;;;;28.59;40.58;100019.75;10454275;28;20243;-69
2023/09/02 16:10:05;;;;;;;1.70;1.55;;;;;;;27.41;41.94;100062.56;10453166;28;20775;-69
2023/09/02 16:15:10;;;;;;;3.22;1.60;;;;;;;28.72;40.48;100037.44;10449890;28;20220;-68
2023/09/02 16:20:12;;;;;;;2.58;1.80;;;;;;;28.25;40.97;100039.25;10454010;28;20239;-68
2023/09/02 16:25:14;;;;;;;2.22;1.83;;;;;;;27.97;41.44;100030.84;10446516;28;21806;-70
2023/09/02 16:30:16;;;;;;;1.55;1.45;;;;;;;28.10;40.78;100040.25;10446755;28;20234;-70
2023/09/02 16:35:21;;;;;;;2.05;1.52;;;;;;;27.09;42.21;100052.97;10446085;28;20227;-70
2023/09/02 16:40:27;;;;;;;2.65;1.40;;;;;;;28.47;40.69;100024.88;10445203;28;20238;-68
2023/09/02 16:45:29;;;;;;;2.10;1.50;;;;;;;27.40;41.77;100073.84;10444126;28;20687;-68
2023/09/02 16:50:30;;;;;;;2.15;1.95;;;;;;;27.79;41.67;100020.66;10439138;28;20244;-68
2023/09/02 16:55:33;;;;;;;2.25;1.80;;;;;;;28.38;40.76;100041.25;10440405;28;20235;-69
2023/09/02 17:00:35;;;;;;;2.03;1.67;;;;;;;28.20;40.98;100036.59;10446853;28;20343;-69
2023/09/02 17:05:41;;;;;;;2.35;1.70;;;;;;;28.34;40.95;100053.16;10444724;28;20741;-69
2023/09/02 17:10:43;;;;;;;2.30;2.00;;;;;;;29.12;40.30;100037.03;10444118;28;20246;-70
2023/09/02 17:15:45;;;;;;;2.17;1.83;;;;;;;29.27;39.69;100049.72;10408389;28;20239;-69
2023/09/02 17:20:46;;;;;;;3.95;1.90;;;;;;;29.36;40.05;100075.44;10402261;28;20611;-70
2023/09/02 17:25:48;;;;;;;1.50;1.40;;;;;;;29.63;39.76;100038.00;10403783;28;20830;-69
2023/09/02 17:31:02;;;;;;;1.67;1.58;;;;;;;28.11;41.65;100107.13;10405703;28;20285;-70
2023/09/02 17:36:05;;;;;;;1.83;1.55;;;;;;;27.45;42.11;100115.00;10447915;28;20227;-68
2023/09/02 17:41:07;;;;;;;2.40;1.90;;;;;;;27.12;43.23;100049.63;10450662;28;20743;-69
2023/09/02 17:46:09;;;;;;;2.20;2.00;;;;;;;25.87;44.30;100120.41;10446962;28;20246;-69
2023/09/02 17:51:10;;;;;;;1.80;1.63;;;;;;;27.60;42.51;100059.88;10444364;28;20289;-69
2023/09/02 17:56:12;;;;;;;1.83;1.60;;;;;;;27.08;42.84;100103.50;10447397;28;20199;-69
2023/09/02 18:01:14;;;;;;;1.60;1.50;;;;;;;28.21;41.49;100058.31;10440109;28;20219;-69
2023/09/02 18:06:15;;;;;;;5.70;1.80;;;;;;;26.79;43.36;100116.38;10446705;28;20959;-71
2023/09/02 18:11:17;;;;;;;1.75;1.63;;;;;;;26.02;43.97;100145.81;10442034;28;20231;-70
2023/09/02 18:16:19;;;;;;;2.85;1.70;;;;;;;26.85;43.56;100091.34;10404946;28;21307;-70
2023/09/02 18:21:21;;;;;;;1.73;1.45;;;;;;;27.27;42.18;100105.56;10406770;28;20842;-71
2023/09/02 18:26:22;;;;;;;2.00;1.70;;;;;;;27.01;42.49;100115.91;10432591;28;20228;-69
2023/09/02 18:31:26;;;;;;;3.05;1.65;;;;;;;26.13;43.67;100143.88;10436452;28;20730;-71
2023/09/02 18:36:28;;;;;;;2.10;1.60;;;;;;;27.26;42.00;100125.88;10445731;28;20204;-71
2023/09/02 18:41:30;;;;;;;1.90;1.75;;;;;;;26.67;42.93;100163.34;10444505;28;22264;-72
2023/09/02 18:46:34;;;;;;;3.35;1.75;;;;;;;26.31;43.05;100180.03;10441957;28;20239;-71
2023/09/02 18:51:36;;;;;;;2.90;2.17;;;;;;;25.91;43.87;100148.88;10445102;28;20239;-70
2023/09/02 18:56:38;;;;;;;2.47;1.80;;;;;;;26.09;43.71;100161.16;10446890;28;20257;-71
2023/09/02 19:01:40;;;;;;;3.15;2.28;;;;;;;25.03;45.50;100200.97;10452109;28;20249;-70
2023/09/02 19:06:41;;;;;;;2.80;2.20;;;;;;;25.30;45.00;100202.66;10447779;28;20283;-70
2023/09/02 19:11:43;;;;;;;4.78;2.58;;;;;;;25.84;44.20;100193.03;10441534;28;20227;-72
2023/09/02 19:16:45;;;;;;;2.55;2.13;;;;;;;24.55;46.84;100208.50;10447477;28;20231;-70
2023/09/02 19:21:46;;;;;;;2.92;2.47;;;;;;;23.53;48.99;100204.03;10448471;28;20250;-73
2023/09/02 19:26:48;;;;;;;2.72;2.03;;;;;;;23.27;49.92;100203.03;10456125;28;20381;-78
2023/09/02 19:31:50;;;;;;;2.40;1.80;;;;;;;22.91;51.08;100224.50;10459137;28;20782;-76
2023/09/02 19:36:57;;;;;;;3.50;2.10;;;;;;;23.17;50.38;100222.84;10460224;28;20250;-77
2023/09/02 19:41:59;;;;;;;3.25;1.70;;;;;;;24.94;47.08;100204.53;10457903;28;20340;-76
2023/09/02 19:47:00;;;;;;;3.38;1.80;;;;;;;24.13;48.16;100237.53;10458897;28;20235;-77
2023/09/02 19:52:02;;;;;;;4.25;1.95;;;;;;;23.95;48.08;100262.56;10447016;28;20227;-75
2023/09/02 19:57:04;;;;;;;3.53;1.83;;;;;;;23.94;47.74;100275.41;10426170;28;20367;-77
2023/09/02 20:02:06;;;;;;;2.28;1.67;;;;;;;23.48;48.93;100264.06;10455487;28;20323;-76
2023/09/02 20:07:08;;;;;;;1.98;1.80;;;;;;;22.72;50.82;100289.47;10457911;28;20224;-78
2023/09/02 20:12:09;;;;;;;4.78;1.95;;;;;;;22.81;50.33;100279.75;10455206;28;20305;-80
2023/09/02 20:17:11;;;;;;;3.10;1.90;;;;;;;23.38;49.94;100239.41;10412323;28;20230;-76
2023/09/02 20:22:13;;;;;;;2.75;2.00;;;;;;;22.45;50.91;100290.16;10443653;28;20266;-79
2023/09/02 20:27:18;;;;;;;2.92;1.95;;;;;;;22.73;50.92;100287.56;10412452;28;20570;-77
2023/09/02 20:32:20;;;;;;;1.85;1.75;;;;;;;22.46;50.65;100327.28;10423169;28;20239;-77
2023/09/02 20:37:22;;;;;;;2.58;2.15;;;;;;;23.12;50.06;100291.03;10445615;28;20232;-76
2023/09/02 20:42:23;;;;;;;2.55;1.77;;;;;;;23.48;49.55;100285.13;10457713;28;20235;-77
2023/09/02 20:47:25;;;;;;;2.55;1.88;;;;;;;25.16;45.86;100303.66;10444266;28;20228;-77
2023/09/02 20:52:27;;;;;;;1.90;1.80;;;;;;;23.59;47.95;100387.91;10412782;28;20232;-78
2023/09/02 20:57:29;;;;;;;2.00;1.90;;;;;;;24.00;47.26;100345.44;10430160;28;20227;-78
2023/09/02 21:02:31;;;;;;;1.70;1.60;;;;;;;23.25;49.15;100358.88;10459252;28;20263;-77
2023/09/02 21:07:33;;;;;;;2.30;1.85;;;;;;;22.92;49.54;100359.81;10444096;28;20808;-78
2023/09/02 21:12:35;;;;;;;2.30;1.90;;;;;;;23.69;48.15;100338.88;10418147;28;20264;-77
2023/09/02 21:17:38;;;;;;;2.60;2.40;;;;;;;23.05;49.84;100334.06;10415374;28;20231;-78
2023/09/02 21:22:39;;;;;;;11.18;2.17;;;;;;;22.10;51.65;100361.34;10410156;28;20254;-79
2023/09/02 21:27:42;;;;;;;3.50;1.90;;;;;;;24.32;47.68;100309.03;10413505;28;20271;-78
2023/09/02 21:32:45;;;;;;;2.15;1.95;;;;;;;24.78;46.72;100337.75;10431787;28;20232;-78
2023/09/02 21:37:47;;;;;;;1.90;1.80;;;;;;;23.71;48.08;100385.88;10427342;28;20227;-79
2023/09/02 21:42:48;;;;;;;2.35;2.05;;;;;;;23.58;47.89;100381.63;10451469;28;20232;-73
2023/09/02 21:47:50;;;;;;;3.85;2.00;;;;;;;24.39;46.74;100330.66;10455051;28;20599;-75
2023/09/02 21:52:52;;;;;;;1.90;1.80;;;;;;;23.71;47.74;100342.16;10447694;28;20235;-76
2023/09/02 21:57:53;;;;;;;5.03;2.72;;;;;;;24.09;46.99;100325.78;10448632;28;20239;-76
2023/09/02 22:02:56;;;;;;;2.13;2.00;;;;;;;24.02;47.04;100339.69;10436368;28;20264;-78
2023/09/02 22:07:58;;;;;;;2.72;1.60;;;;;;;23.46;48.73;100326.34;10434908;28;20318;-76
2023/09/02 22:13:00;;;;;;;2.13;1.92;;;;;;;21.48;51.75;100371.16;10453329;28;20234;-79
2023/09/02 22:18:02;;;;;;;2.83;2.50;;;;;;;22.97;49.63;100304.50;10449210;28;20235;-76
2023/09/02 22:23:04;;;;;;;3.03;2.03;;;;;;;21.13;51.97;100384.84;10450813;28;20228;-76
2023/09/02 22:28:06;;;;;;;3.13;2.00;;;;;;;20.68;52.81;100389.88;10447616;28;20354;-77
2023/09/02 22:33:08;;;;;;;2.35;2.00;;;;;;;21.42;51.98;100343.03;10446324;28;20241;-75
2023/09/02 22:38:10;;;;;;;2.45;2.13;;;;;;;21.33;52.13;100344.44;10446109;28;20231;-77
2023/09/02 22:43:12;;;;;;;2.50;2.30;;;;;;;21.37;51.73;100361.97;10446504;28;20227;-77
2023/09/02 22:48:15;;;;;;;2.22;1.80;;;;;;;21.38;51.73;100371.78;10451714;28;20237;-76
2023/09/02 22:53:18;;;;;;;3.22;2.08;;;;;;;22.34;49.76;100372.91;10449994;28;20230;-74
2023/09/02 22:58:20;;;;;;;3.08;2.47;;;;;;;21.29;51.39;100402.31;10444829;28;20238;-73
2023/09/02 23:03:23;;;;;;;1.98;1.88;;;;;;;22.65;48.69;100348.84;10445980;28;20303;-75
2023/09/02 23:08:25;;;;;;;4.68;2.38;;;;;;;21.19;51.21;100411.13;10535767;28;20237;-76
2023/09/02 23:13:27;;;;;;;2.40;2.20;;;;;;;21.87;50.77;100356.88;10528706;28;20226;-76
2023/09/02 23:18:29;;;;;;;2.50;2.30;;;;;;;21.27;50.83;100442.56;10518853;28;20232;-78
2023/09/02 23:23:31;;;;;;;4.47;2.10;;;;;;;22.37;49.71;100356.06;10530690;28;20230;-77